Laval-Ouest, Canada
Current Conditions -  °F | °C
As of 5:00 AM on Monday 20 Oct 2014 (Local Time) from CYUL Reporting Station
Few Clouds Few Clouds  
Wind Chill:   Ceiling: Unl
Heat Index:   Visibility: 15mi
Dew Point: -4°   Wind: 5mph
Humidity: 65%   Direction: 280°W
Pressure: 29.98"   Gusts: NA
Location:  45.55°N, 73.87°W
Report Text: CYUL 200900Z 28004KT 15SM FEW040 FEW150 02/M04 A2998 RMK SC1AC1 SC TR SLP154
Loading
Personal Weather Stations






























Interactive Weather Map
Tropical Storm Tracking
New forecast layout! Learn more

10-Day Weather Forecast

Advertisements
Track Severe Weather on mobile